createdAt,value
2022-11-23T00:01:30.125Z,23.73
2022-11-23T00:04:01.174Z,24.50
2022-11-23T00:06:28.674Z,25.85
2022-11-23T00:08:56.050Z,24.33
2022-11-23T00:11:25.415Z,26.23
2022-11-23T00:13:53.132Z,28.17
2022-11-23T00:16:24.965Z,24.95
2022-11-23T00:19:00.452Z,26.55
2022-11-23T00:21:29.952Z,27.10
2022-11-23T00:23:57.491Z,27.58
2022-11-23T00:26:27.556Z,26.75
2022-11-23T00:28:57.276Z,26.73
2022-11-23T00:31:24.801Z,26.30
2022-11-23T00:33:55.504Z,26.38
2022-11-23T00:36:26.475Z,26.27
2022-11-23T00:38:53.837Z,27.13
2022-11-23T00:41:23.684Z,27.25
2022-11-23T00:43:53.575Z,26.17
2022-11-23T00:46:23.042Z,24.55
2022-11-23T00:48:53.141Z,24.13
2022-11-23T00:51:26.550Z,24.17
2022-11-23T00:53:56.681Z,26.00
2022-11-23T00:56:27.515Z,25.83
2022-11-23T00:58:56.243Z,23.35
2022-11-23T01:01:31.789Z,25.25
2022-11-23T01:04:02.749Z,23.95
2022-11-23T01:06:40.342Z,25.55
2022-11-23T01:09:12.028Z,27.85
2022-11-23T01:11:42.129Z,29.70
2022-11-23T01:14:11.760Z,27.27
2022-11-23T01:16:41.775Z,31.25
2022-11-23T01:19:13.276Z,30.33
2022-11-23T01:21:40.662Z,28.38
2022-11-23T01:24:13.270Z,26.17
2022-11-23T01:26:41.486Z,28.52
2022-11-23T01:29:08.742Z,26.73
2022-11-23T01:31:43.208Z,27.70
2022-11-23T01:34:14.589Z,26.98
2022-11-23T01:36:42.829Z,30.17
2022-11-23T01:39:11.413Z,34.58
2022-11-23T01:41:42.486Z,36.78
2022-11-23T01:44:32.937Z,38.45
2022-11-23T01:47:06.090Z,33.28
2022-11-23T01:49:45.176Z,33.93
2022-11-23T01:52:21.695Z,29.98
2022-11-23T01:54:52.530Z,31.17
2022-11-23T01:57:26.311Z,34.85
2022-11-23T01:59:54.917Z,28.92
2022-11-23T02:02:22.418Z,31.60
2022-11-23T02:04:49.900Z,33.53
2022-11-23T02:07:20.592Z,31.90
2022-11-23T02:09:50.485Z,38.00
2022-11-23T02:12:20.369Z,36.92
2022-11-23T02:14:48.011Z,30.27
2022-11-23T02:17:18.792Z,32.30
2022-11-23T02:20:00.723Z,38.22
2022-11-23T02:22:37.332Z,31.38
2022-11-23T02:25:11.124Z,26.75
2022-11-23T02:27:46.813Z,29.17
2022-11-23T02:30:14.382Z,28.20
2022-11-23T02:32:46.903Z,26.65
2022-11-23T02:35:18.718Z,29.98
2022-11-23T02:37:46.100Z,29.88
2022-11-23T02:40:34.283Z,29.85
2022-11-23T02:46:01.798Z,25.20
2022-11-23T02:48:31.607Z,27.25
2022-11-23T02:50:58.865Z,25.58
2022-11-23T02:53:28.368Z,29.05
2022-11-23T02:55:55.511Z,29.83
2022-11-23T02:58:25.017Z,30.58
2022-11-23T03:03:33.652Z,31.80
2022-11-23T03:06:00.945Z,32.60
2022-11-23T03:08:27.909Z,30.42
2022-11-23T03:10:56.027Z,28.77
2022-11-23T03:13:25.568Z,33.58
2022-11-23T03:15:55.431Z,30.98
2022-11-23T03:18:25.971Z,35.05
2022-11-23T03:20:53.233Z,35.60
2022-11-23T03:23:20.231Z,34.28
2022-11-23T03:25:55.747Z,35.25
2022-11-23T03:28:22.935Z,37.72
2022-11-23T03:30:51.332Z,33.10
2022-11-23T03:33:18.977Z,34.38
2022-11-23T03:35:48.800Z,37.78
2022-11-23T03:38:18.018Z,31.77
2022-11-23T03:40:46.043Z,31.90
2022-11-23T03:43:14.544Z,35.38
2022-11-23T03:45:42.352Z,29.88
2022-11-23T03:48:10.638Z,32.08
2022-11-23T03:50:37.982Z,34.15
2022-11-23T03:53:05.157Z,29.50
2022-11-23T03:55:33.411Z,31.17
2022-11-23T03:58:00.781Z,31.95
2022-11-23T04:00:29.069Z,34.53
2022-11-23T04:02:56.242Z,36.60
2022-11-23T04:05:23.851Z,34.90
2022-11-23T04:07:51.331Z,34.25
2022-11-23T04:10:20.866Z,38.53
2022-11-23T04:12:52.252Z,38.10
2022-11-23T04:15:20.160Z,36.65
2022-11-23T04:17:48.159Z,35.95
2022-11-23T04:20:18.004Z,35.33
2022-11-23T04:22:44.974Z,39.95
2022-11-23T04:25:14.500Z,39.30
2022-11-23T04:27:44.724Z,36.70
2022-11-23T04:30:12.400Z,34.38
2022-11-23T04:32:39.361Z,36.15
2022-11-23T04:35:07.105Z,37.58
2022-11-23T04:37:34.146Z,37.78
2022-11-23T04:40:06.925Z,33.80
2022-11-23T04:42:36.417Z,33.33
2022-11-23T04:45:04.024Z,33.45
2022-11-23T04:47:31.219Z,29.75
2022-11-23T04:49:58.618Z,32.38
2022-11-23T04:52:25.621Z,31.48
2022-11-23T04:54:53.042Z,29.92
2022-11-23T04:57:20.247Z,31.35
2022-11-23T04:59:47.531Z,29.67
2022-11-23T05:02:14.610Z,32.03
2022-11-23T05:04:42.199Z,32.78
2022-11-23T05:07:09.251Z,28.90
2022-11-23T05:09:36.878Z,30.67
2022-11-23T05:12:04.227Z,33.47
2022-11-23T05:14:31.558Z,30.98
2022-11-23T05:16:58.717Z,28.25
2022-11-23T05:19:26.143Z,28.88
2022-11-23T05:21:53.174Z,28.67
2022-11-23T05:24:20.564Z,31.92
2022-11-23T05:26:51.995Z,31.70
2022-11-23T05:29:22.221Z,34.97
2022-11-23T05:31:49.285Z,40.47
2022-11-23T05:34:16.651Z,40.35
2022-11-23T05:36:43.744Z,40.88
2022-11-23T05:39:11.435Z,48.70
2022-11-23T05:41:40.727Z,45.63
2022-11-23T05:44:10.417Z,44.35
2022-11-23T05:46:37.575Z,52.38
2022-11-23T05:49:04.897Z,57.33
2022-11-23T05:51:32.259Z,59.35
2022-11-23T05:54:01.274Z,63.40
2022-11-23T05:56:32.045Z,62.97
2022-11-23T05:59:01.101Z,64.30
2022-11-23T06:01:28.145Z,62.65
2022-11-23T06:03:55.574Z,70.35
2022-11-23T06:06:25.220Z,70.25
2022-11-23T06:08:55.127Z,76.93
2022-11-23T06:11:24.938Z,73.38
2022-11-23T06:13:54.680Z,66.13
2022-11-23T06:16:21.698Z,64.53
2022-11-23T06:18:51.586Z,58.72
2022-11-23T06:21:18.929Z,57.67
2022-11-23T06:23:49.398Z,48.28
2022-11-23T06:26:16.564Z,49.22
2022-11-23T06:28:44.043Z,50.58
2022-11-23T06:31:13.601Z,51.00
2022-11-23T06:33:40.914Z,53.28
2022-11-23T06:36:10.925Z,49.53
2022-11-23T06:38:38.398Z,50.83
2022-11-23T06:41:05.653Z,55.03
2022-11-23T06:43:37.681Z,61.70
2022-11-23T06:46:06.237Z,66.82
2022-11-23T06:48:34.124Z,65.32
2022-11-23T06:51:01.769Z,56.47
2022-11-23T06:53:31.549Z,59.53
2022-11-23T06:56:02.211Z,54.40
2022-11-23T06:58:31.880Z,66.75
2022-11-23T07:01:03.921Z,70.65
2022-11-23T07:03:33.553Z,72.32
2022-11-23T07:06:07.902Z,77.78
2022-11-23T07:08:36.700Z,71.70
2022-11-23T07:11:06.535Z,63.85
2022-11-23T07:13:33.972Z,69.60
2022-11-23T07:16:03.571Z,70.57
2022-11-23T07:18:31.159Z,71.38
2022-11-23T07:20:58.997Z,71.95
2022-11-23T07:23:28.680Z,71.68
2022-11-23T07:25:57.925Z,79.85
2022-11-23T07:28:25.452Z,71.63
2022-11-23T07:30:55.257Z,72.07
2022-11-23T07:33:22.589Z,77.75
2022-11-23T07:35:51.988Z,76.45
2022-11-23T07:38:21.606Z,72.90
2022-11-23T07:40:50.098Z,71.57
2022-11-23T07:43:17.550Z,72.45
2022-11-23T07:45:44.505Z,68.60
2022-11-23T07:48:12.012Z,64.05
2022-11-23T07:50:40.010Z,60.85
2022-11-23T07:53:07.881Z,62.58
2022-11-23T07:55:35.198Z,58.92
2022-11-23T07:58:02.628Z,61.40
2022-11-23T08:00:31.937Z,56.88
2022-11-23T08:03:26.713Z,57.72
2022-11-23T08:05:50.030Z,50.55
2022-11-23T08:08:17.521Z,45.53
2022-11-23T08:10:52.627Z,43.90
2022-11-23T08:13:24.131Z,40.60
2022-11-23T08:15:55.367Z,39.25
2022-11-23T08:18:28.112Z,34.30
2022-11-23T08:20:55.699Z,35.13
2022-11-23T08:23:24.260Z,33.95
2022-11-23T08:25:51.441Z,32.25
2022-11-23T08:28:19.226Z,35.53
2022-11-23T08:30:51.669Z,40.88
2022-11-23T08:33:21.626Z,49.67
2022-11-23T08:35:51.763Z,50.45
2022-11-23T08:38:19.108Z,77.15
2022-11-23T08:40:46.215Z,66.13
2022-11-23T08:43:13.692Z,64.63
2022-11-23T08:45:40.765Z,66.22
2022-11-23T08:48:08.183Z,64.50
2022-11-23T08:50:35.410Z,65.03
2022-11-23T08:53:03.047Z,68.57
2022-11-23T08:55:30.129Z,68.90
2022-11-23T08:58:00.727Z,76.72
2022-11-23T09:00:28.625Z,78.65
2022-11-23T09:02:56.486Z,81.63
2022-11-23T09:05:25.180Z,81.18
2022-11-23T09:07:52.556Z,76.68
2022-11-23T09:10:19.744Z,72.70
2022-11-23T09:12:48.325Z,70.80
2022-11-23T09:15:20.389Z,72.00
2022-11-23T09:17:48.294Z,73.53
2022-11-23T09:20:15.701Z,72.38
2022-11-23T09:22:43.069Z,85.50
2022-11-23T09:25:14.529Z,89.55
2022-11-23T09:27:44.305Z,94.10
2022-11-23T09:30:14.345Z,102.35
2022-11-23T09:32:46.492Z,98.35
2022-11-23T09:35:13.535Z,93.60
2022-11-23T09:37:43.320Z,80.07
2022-11-23T09:40:16.132Z,73.10
2022-11-23T09:43:17.699Z,67.22
2022-11-23T09:45:48.127Z,72.43
2022-11-23T09:48:44.779Z,65.05
2022-11-23T09:51:15.204Z,56.40
2022-11-23T09:53:53.540Z,60.22
2022-11-23T09:56:25.517Z,60.58
2022-11-23T09:58:56.239Z,67.43
2022-11-23T10:01:24.610Z,70.38
2022-11-23T10:03:51.983Z,72.00
2022-11-23T10:06:30.338Z,80.63
2022-11-23T10:09:15.352Z,68.80
2022-11-23T10:11:47.440Z,74.35
2022-11-23T10:14:33.081Z,68.72
2022-11-23T10:17:09.585Z,64.38
2022-11-23T10:19:46.842Z,70.22
2022-11-23T10:22:26.434Z,66.47
2022-11-23T10:25:01.484Z,61.42
2022-11-23T10:27:31.648Z,63.38
2022-11-23T10:30:02.016Z,68.07
2022-11-23T10:32:57.017Z,67.07
2022-11-23T10:35:33.153Z,69.43
2022-11-23T10:38:16.761Z,70.78
2022-11-23T10:41:03.534Z,68.25
2022-11-23T10:43:51.032Z,66.93
2022-11-23T10:46:24.777Z,64.80
2022-11-23T10:48:52.803Z,59.90
2022-11-23T10:51:23.852Z,61.30
2022-11-23T10:54:04.989Z,54.67
2022-11-23T10:56:35.413Z,52.00
2022-11-23T10:59:02.542Z,48.45
2022-11-23T11:01:29.904Z,44.10
2022-11-23T11:04:04.553Z,33.25
2022-11-23T11:06:34.416Z,27.17
2022-11-23T11:09:18.511Z,20.35
2022-11-23T11:11:52.236Z,18.35
2022-11-23T11:14:22.712Z,18.35
2022-11-23T11:16:54.423Z,17.35
2022-11-23T11:19:27.962Z,16.70
2022-11-23T11:21:57.222Z,17.65
2022-11-23T11:24:45.066Z,22.45
2022-11-23T11:27:20.377Z,21.52
2022-11-23T11:29:48.556Z,26.33
2022-11-23T11:32:31.506Z,24.00
2022-11-23T11:35:20.648Z,22.77
2022-11-23T11:37:55.955Z,28.80
2022-11-23T11:40:38.513Z,30.35
2022-11-23T11:43:19.435Z,38.78
2022-11-23T11:46:21.419Z,31.05
2022-11-23T11:48:40.979Z,29.63
2022-11-23T11:51:08.076Z,41.20
2022-11-23T11:53:45.349Z,37.97
2022-11-23T11:56:16.965Z,39.90
2022-11-23T11:59:14.363Z,44.05
2022-11-23T12:02:19.492Z,42.08
2022-11-23T12:05:11.656Z,40.33
2022-11-23T12:07:49.268Z,37.38
2022-11-23T12:10:23.579Z,41.20
2022-11-23T12:12:50.703Z,39.00
2022-11-23T12:18:36.303Z,34.88
2022-11-23T12:21:12.828Z,36.00
2022-11-23T12:23:46.055Z,29.05
2022-11-23T12:26:41.586Z,28.55
2022-11-23T12:29:20.723Z,31.02
2022-11-23T12:31:54.036Z,26.85
2022-11-23T12:35:03.009Z,59.38
2022-11-23T12:37:45.426Z,28.52
2022-11-23T12:40:27.620Z,30.17
2022-11-23T12:43:26.454Z,23.15
2022-11-23T12:46:20.211Z,18.73
2022-11-23T12:51:49.324Z,18.70
2022-11-23T12:54:35.126Z,23.33
2022-11-23T12:57:14.150Z,22.27
2022-11-23T13:00:13.751Z,26.17
2022-11-23T13:02:56.575Z,25.48
2022-11-23T13:06:11.997Z,30.50
2022-11-23T13:08:58.083Z,26.70
2022-11-23T13:11:46.558Z,32.47
2022-11-23T13:14:25.617Z,33.55
2022-11-23T13:17:25.133Z,35.38
2022-11-23T13:20:01.715Z,38.35
2022-11-23T13:22:30.928Z,33.22
2022-11-23T13:25:21.190Z,34.55
2022-11-23T13:27:48.514Z,37.50
2022-11-23T13:30:52.002Z,33.95
2022-11-23T13:36:00.064Z,33.42
2022-11-23T13:38:42.400Z,39.08
2022-11-23T13:41:34.573Z,36.55
2022-11-23T13:44:27.874Z,43.03
2022-11-23T13:47:06.211Z,49.78
2022-11-23T13:49:50.213Z,40.03
2022-11-23T13:52:23.227Z,35.83
2022-11-23T13:55:09.291Z,38.33
2022-11-23T13:58:04.005Z,33.25
2022-11-23T14:00:50.558Z,38.88
2022-11-23T14:03:42.835Z,38.80
2022-11-23T14:06:34.498Z,33.05
2022-11-23T14:09:10.438Z,35.08
2022-11-23T14:11:49.227Z,35.35
2022-11-23T14:14:21.039Z,36.30
2022-11-23T14:16:54.417Z,35.08
2022-11-23T14:19:47.152Z,34.80
2022-11-23T14:22:36.459Z,36.25
2022-11-23T14:25:31.586Z,36.80
2022-11-23T14:28:19.555Z,37.80
2022-11-23T14:31:05.493Z,38.88
2022-11-23T14:33:54.617Z,37.50
2022-11-23T14:36:35.654Z,39.60
2022-11-23T14:39:50.977Z,39.95
2022-11-23T14:42:21.405Z,41.30
2022-11-23T14:44:49.580Z,72.15
2022-11-23T14:47:34.146Z,87.32
2022-11-23T14:50:01.666Z,48.60
2022-11-23T14:52:33.873Z,47.70
2022-11-23T14:55:05.644Z,48.05
2022-11-23T14:57:44.193Z,45.70
2022-11-23T15:00:32.059Z,50.63
2022-11-23T15:03:27.005Z,47.15
2022-11-23T15:06:08.495Z,49.85
2022-11-23T15:08:51.017Z,55.47
2022-11-23T15:11:25.739Z,50.10
2022-11-23T15:13:54.624Z,53.40
2022-11-23T15:16:22.125Z,54.33
2022-11-23T15:18:49.557Z,52.65
2022-11-23T15:21:27.850Z,52.30
2022-11-23T15:23:58.047Z,52.97
2022-11-23T15:29:36.175Z,53.33
2022-11-23T15:32:30.731Z,52.17
2022-11-23T15:35:05.377Z,52.15
2022-11-23T15:37:37.441Z,63.80
2022-11-23T15:40:05.048Z,62.17
2022-11-23T15:42:32.753Z,60.30
2022-11-23T15:45:02.104Z,60.38
2022-11-23T15:47:30.612Z,58.70
2022-11-23T15:50:08.863Z,57.03
2022-11-23T15:52:38.255Z,61.17
2022-11-23T15:55:13.944Z,61.05
2022-11-23T15:57:44.076Z,71.90
2022-11-23T16:00:23.864Z,65.80
2022-11-23T16:03:11.659Z,71.07
2022-11-23T16:05:41.921Z,76.00
2022-11-23T16:08:24.557Z,77.13
2022-11-23T16:10:57.069Z,77.72
2022-11-23T16:13:38.962Z,78.77
2022-11-23T16:16:13.853Z,79.60
2022-11-23T16:18:46.529Z,78.63
2022-11-23T16:21:19.598Z,78.50
2022-11-23T16:23:58.947Z,85.82
2022-11-23T16:26:33.564Z,93.45
2022-11-23T16:29:01.343Z,98.32
2022-11-23T16:31:35.669Z,100.05
2022-11-23T16:34:09.252Z,94.50
2022-11-23T16:36:36.400Z,157.75
2022-11-23T16:39:05.811Z,95.00
2022-11-23T16:41:33.328Z,98.35
2022-11-23T16:44:00.864Z,93.82
2022-11-23T16:46:28.401Z,91.00
2022-11-23T16:48:57.308Z,96.57
2022-11-23T16:51:24.495Z,89.47
2022-11-23T16:54:13.074Z,93.03
2022-11-23T16:56:43.556Z,87.00
2022-11-23T16:59:17.244Z,93.18
2022-11-23T17:01:55.492Z,95.80
2022-11-23T17:04:24.916Z,107.85
2022-11-23T17:06:52.112Z,98.45
2022-11-23T17:09:21.937Z,102.70
2022-11-23T17:11:51.215Z,99.45
2022-11-23T17:14:25.312Z,161.25
2022-11-23T17:16:57.549Z,96.72
2022-11-23T17:19:26.277Z,91.88
2022-11-23T17:21:53.274Z,81.07
2022-11-23T17:24:20.864Z,84.03
2022-11-23T17:26:50.799Z,85.55
2022-11-23T17:29:21.411Z,78.05
2022-11-23T17:31:51.290Z,82.65
2022-11-23T17:34:21.194Z,80.10
2022-11-23T17:36:54.263Z,85.05
2022-11-23T17:39:26.432Z,171.18
2022-11-23T17:41:53.744Z,94.03
2022-11-23T17:44:23.671Z,85.60
2022-11-23T17:46:52.763Z,77.45
2022-11-23T17:49:20.209Z,77.32
2022-11-23T17:51:49.705Z,77.70
2022-11-23T17:54:16.993Z,80.40
2022-11-23T17:56:46.377Z,83.93
2022-11-23T17:59:16.203Z,80.93
2022-11-23T18:01:45.548Z,76.13
2022-11-23T18:04:13.071Z,119.32
2022-11-23T18:06:42.456Z,108.20
2022-11-23T18:09:09.941Z,108.75
2022-11-23T18:11:39.434Z,116.63
2022-11-23T18:14:09.081Z,120.45
2022-11-23T18:16:38.661Z,116.43
2022-11-23T18:19:06.183Z,114.03
2022-11-23T18:21:35.843Z,106.63
2022-11-23T18:24:04.818Z,105.82
2022-11-23T18:26:32.368Z,113.70
2022-11-23T18:28:59.827Z,113.30
2022-11-23T18:31:30.052Z,110.85
2022-11-23T18:33:57.493Z,109.78
2022-11-23T18:36:24.658Z,111.38
2022-11-23T18:38:54.592Z,108.20
2022-11-23T18:41:22.744Z,173.48
2022-11-23T18:43:50.277Z,123.03
2022-11-23T18:46:17.667Z,111.13
2022-11-23T18:48:49.901Z,101.97
2022-11-23T18:51:18.074Z,106.97
2022-11-23T18:53:48.141Z,105.55
2022-11-23T18:56:15.521Z,112.90
2022-11-23T18:58:46.121Z,115.40
2022-11-23T19:01:15.661Z,109.28
2022-11-23T19:03:43.386Z,114.43
2022-11-23T19:06:14.534Z,107.90
2022-11-23T19:08:43.871Z,111.60
2022-11-23T19:11:19.899Z,115.18
2022-11-23T19:13:54.427Z,141.07
2022-11-23T19:16:28.226Z,133.95
2022-11-23T19:19:06.576Z,127.25
2022-11-23T19:21:38.118Z,118.25
2022-11-23T19:24:11.818Z,123.03
2022-11-23T19:26:38.957Z,126.28
2022-11-23T19:29:06.309Z,125.53
2022-11-23T19:31:36.285Z,128.60
2022-11-23T19:34:05.810Z,129.98
2022-11-23T19:36:34.470Z,134.35
2022-11-23T19:39:02.768Z,131.43
2022-11-23T19:41:30.979Z,153.55
2022-11-23T19:44:01.391Z,158.95
2022-11-23T19:46:30.607Z,139.88
2022-11-23T19:49:00.897Z,134.98
2022-11-23T19:51:28.370Z,129.40
2022-11-23T19:54:01.144Z,120.88
2022-11-23T19:56:29.052Z,129.23
2022-11-23T19:58:59.228Z,119.97
2022-11-23T20:01:29.188Z,127.70
2022-11-23T20:04:00.209Z,138.90
2022-11-23T20:06:32.326Z,122.90
2022-11-23T20:09:04.711Z,115.85
2022-11-23T20:11:35.399Z,132.85
2022-11-23T20:14:02.792Z,116.78
2022-11-23T20:16:32.176Z,117.38
2022-11-23T20:19:02.022Z,120.25
2022-11-23T20:21:30.551Z,123.05
2022-11-23T20:24:04.459Z,120.90
2022-11-23T20:26:35.808Z,123.97
2022-11-23T20:29:03.871Z,140.73
2022-11-23T20:31:32.447Z,117.85
2022-11-23T20:34:00.199Z,134.27
2022-11-23T20:36:31.700Z,120.00
2022-11-23T20:39:02.442Z,127.18
2022-11-23T20:41:35.112Z,121.80
2022-11-23T20:44:20.922Z,144.27
2022-11-23T20:47:04.019Z,117.30
2022-11-23T20:49:32.204Z,122.17
2022-11-23T20:52:00.244Z,140.75
2022-11-23T20:54:30.691Z,144.77
2022-11-23T20:56:58.508Z,138.45
2022-11-23T20:59:25.890Z,136.73
2022-11-23T21:01:53.353Z,129.75
2022-11-23T21:04:20.479Z,143.07
2022-11-23T21:06:47.811Z,135.30
2022-11-23T21:09:14.958Z,130.77
2022-11-23T21:11:44.947Z,133.15
2022-11-23T21:14:18.480Z,129.40
2022-11-23T21:16:46.668Z,118.55
2022-11-23T21:19:14.275Z,115.47
2022-11-23T21:21:41.753Z,111.30
2022-11-23T21:24:13.770Z,109.07
2022-11-23T21:26:43.633Z,102.97
2022-11-23T21:29:13.215Z,101.05
2022-11-23T21:31:42.628Z,93.13
2022-11-23T21:34:20.176Z,86.78
2022-11-23T21:36:50.805Z,74.05
2022-11-23T21:39:18.647Z,65.43
2022-11-23T21:41:50.159Z,65.18
2022-11-23T21:44:17.943Z,65.10
2022-11-23T21:46:45.432Z,68.60
2022-11-23T21:49:15.128Z,64.18
2022-11-23T21:51:45.276Z,66.50
2022-11-23T21:54:15.164Z,62.90
2022-11-23T21:56:44.260Z,69.25
2022-11-23T21:59:13.917Z,96.50
2022-11-23T22:01:43.640Z,127.35
2022-11-23T22:04:12.758Z,80.15
2022-11-23T22:06:41.070Z,67.93
2022-11-23T22:09:09.939Z,68.32
2022-11-23T22:11:40.084Z,68.60
2022-11-23T22:14:15.454Z,69.45
2022-11-23T22:16:47.727Z,71.68
2022-11-23T22:19:19.984Z,70.88
2022-11-23T22:21:47.502Z,71.63
2022-11-23T22:24:19.575Z,67.95
2022-11-23T22:26:47.820Z,76.10
2022-11-23T22:29:15.608Z,88.97
2022-11-23T22:31:43.441Z,83.90
2022-11-23T22:34:12.472Z,95.07
2022-11-23T22:36:42.612Z,100.80
2022-11-23T22:39:10.443Z,100.93
2022-11-23T22:41:38.451Z,98.75
2022-11-23T22:44:10.081Z,102.22
2022-11-23T22:46:38.569Z,114.35
2022-11-23T22:49:06.050Z,119.97
2022-11-23T22:51:33.499Z,115.72
2022-11-23T22:54:01.583Z,115.22
2022-11-23T22:56:30.508Z,142.68
2022-11-23T22:58:59.979Z,151.20
2022-11-23T23:01:29.981Z,171.57
2022-11-23T23:03:59.292Z,195.93
2022-11-23T23:06:28.786Z,215.45
2022-11-23T23:08:59.841Z,229.57
2022-11-23T23:11:31.011Z,205.05
2022-11-23T23:13:58.854Z,209.77
2022-11-23T23:16:29.403Z,199.27
2022-11-23T23:18:58.190Z,194.65
2022-11-23T23:21:29.667Z,201.77
2022-11-23T23:23:59.699Z,209.40
2022-11-23T23:26:27.661Z,222.00
2022-11-23T23:28:56.529Z,234.05
2022-11-23T23:31:27.619Z,242.98
2022-11-23T23:33:58.655Z,234.77
2022-11-23T23:36:26.203Z,225.50
2022-11-23T23:38:53.808Z,230.23
2022-11-23T23:41:21.422Z,246.07
2022-11-23T23:43:50.839Z,244.98
2022-11-23T23:46:18.454Z,231.18
2022-11-23T23:48:46.017Z,231.52
2022-11-23T23:51:16.092Z,229.73
2022-11-23T23:53:46.268Z,236.00
2022-11-23T23:56:15.979Z,225.70
2022-11-23T23:58:43.977Z,222.00
